Time;durP1;ratioP1;P1;durP2;ratioP2;P2;SDS_P1;SDS_P2;PMS_P1;PMS_P2;Temp;Humidity;BMP_temperature;BMP_pressure;BME280_temperature;BME280_humidity;BME280_pressure;Samples;Min_cycle;Max_cycle;Signal;HPM_P1;HPM_P2
2021/07/05 00:00:47;;;;;;;7.60;6.10;;;16.50;99.90;;;;;;6318638;22;20207;31
2021/07/05 00:07:25;;;;;;;8.48;6.35;;;16.40;99.90;;;;;;6134852;23;20200;31
2021/07/05 00:14:41;;;;;;;9.60;8.00;;;16.30;99.90;;;;;;6256475;22;20207;31
2021/07/05 00:26:22;;;;;;;8.75;7.18;;;16.30;99.90;;;;;;6259982;22;20814;31
2021/07/05 00:42:25;;;;;;;8.90;8.00;;;16.20;99.90;;;;;;6288434;22;20292;-64
2021/07/05 00:56:10;;;;;;;9.77;7.75;;;16.10;99.90;;;;;;6288110;22;20199;31
2021/07/05 01:10:18;;;;;;;10.55;8.27;;;16.00;99.90;;;;;;6289438;22;20195;31
2021/07/05 01:23:49;;;;;;;11.02;9.10;;;15.90;99.90;;;;;;6318513;22;20224;31
2021/07/05 01:41:44;;;;;;;10.23;8.77;;;15.80;99.90;;;;;;6290733;22;20522;-63
2021/07/05 01:44:09;;;;;;;13.00;9.75;;;15.90;99.90;;;;;;6264173;22;20185;31
2021/07/05 01:50:06;;;;;;;13.60;10.50;;;15.80;99.90;;;;;;6292449;22;20519;31
2021/07/05 02:24:22;;;;;;;14.63;10.98;;;15.70;99.90;;;;;;6166999;22;20518;31
2021/07/05 02:31:11;;;;;;;14.07;10.20;;;15.70;99.90;;;;;;6167972;22;21858;-63
2021/07/05 02:47:30;;;;;;;13.52;10.25;;;15.60;99.90;;;;;;6226302;22;20205;31
2021/07/05 02:54:27;;;;;;;12.80;10.52;;;15.60;99.90;;;;;;6287685;22;21629;31
2021/07/05 02:58:38;;;;;;;16.27;10.75;;;15.60;99.90;;;;;;6291902;22;20520;31
2021/07/05 03:07:45;;;;;;;14.80;11.02;;;15.60;99.90;;;;;;6136509;23;20208;31
2021/07/05 03:27:17;;;;;;;12.88;10.65;;;16.00;99.90;;;;;;5801590;22;20534;31
2021/07/05 03:34:16;;;;;;;14.07;10.15;;;16.10;99.90;;;;;;6175009;22;20565;31
2021/07/05 03:50:38;;;;;;;14.80;10.00;;;16.40;99.90;;;;;;6287324;22;20204;31
2021/07/05 04:01:31;;;;;;;12.18;9.43;;;16.40;99.90;;;;;;6204346;22;20925;31
2021/07/05 04:17:55;;;;;;;13.25;8.95;;;16.70;99.90;;;;;;5705143;23;21834;31
2021/07/05 04:49:28;;;;;;;14.63;8.30;;;17.10;99.90;;;;;;6204644;22;20515;-62
2021/07/05 05:05:34;;;;;;;8.13;7.30;;;17.60;99.90;;;;;;6202658;22;20205;31
2021/07/05 05:11:56;;;;;;;12.52;8.63;;;17.70;99.90;;;;;;6263524;22;20205;31
2021/07/05 05:25:47;;;;;;;9.80;7.78;;;18.00;99.90;;;;;;6151263;23;20206;31
2021/07/05 05:40:13;;;;;;;9.25;7.95;;;18.40;99.90;;;;;;6258696;22;20432;31
2021/07/05 05:48:31;;;;;;;12.05;7.47;;;18.80;99.90;;;;;;6287739;22;21563;31
2021/07/05 05:55:54;;;;;;;12.25;7.40;;;19.30;99.90;;;;;;6286940;22;20203;31
2021/07/05 06:36:49;;;;;;;10.70;7.10;;;20.80;99.90;;;;;;6225758;22;20200;31
2021/07/05 06:41:35;;;;;;;8.13;7.10;;;20.90;99.90;;;;;;6212723;22;20280;31
2021/07/05 06:48:15;;;;;;;8.65;6.55;;;21.10;99.90;;;;;;6206193;22;21917;31
2021/07/05 06:54:48;;;;;;;8.05;7.13;;;21.50;99.90;;;;;;6328306;22;21474;-64
2021/07/05 06:57:29;;;;;;;7.18;6.43;;;21.90;99.90;;;;;;6346662;22;20189;-64
2021/07/05 06:59:56;;;;;;;8.75;7.35;;;22.00;99.90;;;;;;6346835;22;20259;-63
2021/07/05 07:02:22;;;;;;;7.03;6.32;;;22.20;99.90;;;;;;6347229;22;20196;-64
2021/07/05 07:04:47;;;;;;;10.82;7.32;;;22.30;99.90;;;;;;6347055;22;20226;-64
2021/07/05 07:07:13;;;;;;;7.53;6.38;;;22.40;99.90;;;;;;6347087;22;20188;-64
2021/07/05 07:09:38;;;;;;;7.80;7.00;;;22.60;99.90;;;;;;6346948;22;20412;-64
2021/07/05 07:12:04;;;;;;;7.78;7.00;;;22.70;99.90;;;;;;6347276;22;20201;-64
2021/07/05 07:14:29;;;;;;;7.72;7.03;;;22.80;99.90;;;;;;6346588;22;20173;-64
2021/07/05 07:17:04;;;;;;;7.65;6.85;;;22.90;99.90;;;;;;6320612;22;20180;-63
2021/07/05 07:19:30;;;;;;;7.78;6.47;;;23.00;99.90;;;;;;6347281;22;20174;-64
2021/07/05 07:21:56;;;;;;;14.55;7.70;;;23.00;99.90;;;;;;6346628;22;20180;-64
2021/07/05 07:24:21;;;;;;;7.55;6.85;;;23.10;99.90;;;;;;6347624;22;20508;-63
2021/07/05 07:26:47;;;;;;;7.90;7.05;;;23.20;99.90;;;;;;6347732;22;20455;-64
2021/07/05 07:29:13;;;;;;;7.65;6.95;;;23.20;99.90;;;;;;6347193;22;20152;-64
2021/07/05 07:31:39;;;;;;;8.18;7.47;;;23.30;99.90;;;;;;6347277;22;20186;-64
2021/07/05 07:34:05;;;;;;;7.30;6.60;;;23.40;99.90;;;;;;6347236;22;20841;-64
2021/07/05 07:36:31;;;;;;;8.57;7.85;;;23.50;99.90;;;;;;6347248;22;20229;-64
2021/07/05 07:39:04;;;;;;;7.82;7.00;;;23.60;99.90;;;;;;6320482;22;20173;-64
2021/07/05 07:41:33;;;;;;;10.50;6.80;;;23.70;99.90;;;;;;6347643;22;20494;-64
2021/07/05 07:43:59;;;;;;;8.30;7.50;;;23.80;99.90;;;;;;6347688;22;20142;-64
2021/07/05 07:46:25;;;;;;;7.85;7.15;;;23.80;99.90;;;;;;6347337;22;20198;-64
2021/07/05 07:48:50;;;;;;;8.75;7.75;;;23.90;99.90;;;;;;6347770;22;20201;-64
2021/07/05 07:51:16;;;;;;;7.70;7.00;;;24.00;99.90;;;;;;6347656;22;20448;-63
2021/07/05 07:53:41;;;;;;;9.32;7.88;;;24.00;99.90;;;;;;6347633;22;20161;-64
2021/07/05 07:56:07;;;;;;;8.88;8.07;;;24.10;99.90;;;;;;6347571;22;20149;-64
2021/07/05 07:58:32;;;;;;;8.55;7.63;;;24.00;99.90;;;;;;6347658;22;20493;-64
2021/07/05 08:00:58;;;;;;;8.63;7.82;;;24.00;99.90;;;;;;6347425;22;20137;-64
2021/07/05 08:03:23;;;;;;;8.35;7.57;;;23.90;99.90;;;;;;6320268;22;20141;-64
2021/07/05 08:05:49;;;;;;;9.70;8.80;;;23.80;99.90;;;;;;6341427;22;20169;-64
2021/07/05 08:08:15;;;;;;;11.00;8.70;;;23.70;99.90;;;;;;6340224;22;20177;-64
2021/07/05 08:10:42;;;;;;;9.13;8.23;;;23.60;99.90;;;;;;6340352;22;20153;-64
2021/07/05 08:13:07;;;;;;;10.52;8.45;;;23.60;99.90;;;;;;6340274;22;20169;-64
2021/07/05 08:15:33;;;;;;;7.60;6.95;;;23.70;99.90;;;;;;6339998;22;20200;-64
2021/07/05 08:17:58;;;;;;;8.20;7.50;;;23.80;99.90;;;;;;6339890;22;20417;-64
2021/07/05 08:20:24;;;;;;;8.68;7.85;;;24.00;99.90;;;;;;6339635;22;20582;-64
2021/07/05 08:22:54;;;;;;;8.68;7.90;;;24.20;99.90;;;;;;6339560;22;20165;-64
2021/07/05 08:25:21;;;;;;;9.32;8.27;;;24.40;99.90;;;;;;6339933;22;20207;-64
2021/07/05 08:27:46;;;;;;;9.38;8.48;;;24.60;99.90;;;;;;6339892;22;20223;-64
2021/07/05 08:30:12;;;;;;;9.85;8.95;;;24.80;99.90;;;;;;6340195;22;20577;-64
2021/07/05 08:32:38;;;;;;;10.27;9.27;;;24.80;99.90;;;;;;6339665;22;20613;-64
2021/07/05 08:35:06;;;;;;;9.20;8.50;;;24.80;99.90;;;;;;6339759;22;20142;-64
2021/07/05 08:37:31;;;;;;;9.70;8.90;;;24.80;99.90;;;;;;6339548;22;20199;-64
2021/07/05 08:39:57;;;;;;;10.00;9.02;;;24.90;99.90;;;;;;6339593;22;20146;-64
2021/07/05 08:42:25;;;;;;;10.45;9.55;;;25.00;99.90;;;;;;6339696;22;20142;-64
2021/07/05 08:44:51;;;;;;;9.32;8.57;;;25.10;99.90;;;;;;6339621;22;20137;-64
2021/07/05 08:47:17;;;;;;;10.77;9.90;;;25.20;99.90;;;;;;6339536;22;20163;-64
2021/07/05 08:49:48;;;;;;;10.15;9.25;;;25.40;99.90;;;;;;6339638;22;20134;-64
2021/07/05 08:52:14;;;;;;;9.35;8.52;;;25.50;99.90;;;;;;6339401;22;20126;-64
2021/07/05 08:54:39;;;;;;;9.85;8.95;;;25.60;99.90;;;;;;6339352;22;20200;-64
2021/07/05 08:57:05;;;;;;;10.00;9.10;;;25.80;99.90;;;;;;6339211;22;20169;-64
2021/07/05 08:59:32;;;;;;;9.40;8.52;;;25.90;99.90;;;;;;6339426;22;20229;-64
2021/07/05 09:01:58;;;;;;;9.52;8.63;;;25.80;99.90;;;;;;6339370;22;20141;-64
2021/07/05 09:04:23;;;;;;;9.18;8.38;;;25.60;99.90;;;;;;6339315;22;20170;-64
2021/07/05 09:07:04;;;;;;;9.68;8.85;;;25.30;99.90;;;;;;6339093;22;20149;-64
2021/07/05 09:09:31;;;;;;;9.52;8.50;;;25.00;99.90;;;;;;6339378;22;20138;-64
2021/07/05 09:12:05;;;;;;;9.10;8.20;;;24.70;99.90;;;;;;6339149;22;20142;-64
2021/07/05 09:14:31;;;;;;;8.20;7.40;;;24.60;99.90;;;;;;6339100;22;20249;-64
2021/07/05 09:16:57;;;;;;;7.88;7.18;;;24.70;99.90;;;;;;6338485;22;20142;-64
2021/07/05 09:19:25;;;;;;;7.65;6.97;;;24.70;99.90;;;;;;6338977;22;20160;-64
2021/07/05 09:22:00;;;;;;;7.38;6.78;;;24.70;99.90;;;;;;6339136;22;20520;-64
2021/07/05 09:24:35;;;;;;;8.05;7.30;;;24.70;99.90;;;;;;6339498;22;20206;-64
2021/07/05 09:27:17;;;;;;;8.07;7.38;;;24.80;99.90;;;;;;6338869;22;20133;-63
2021/07/05 09:29:44;;;;;;;7.72;6.93;;;24.80;99.90;;;;;;6338925;22;20164;-64
2021/07/05 09:32:12;;;;;;;6.90;6.25;;;25.00;99.90;;;;;;6338895;22;20156;-63
2021/07/05 09:34:40;;;;;;;7.07;6.47;;;25.00;99.90;;;;;;6338902;22;20165;-63
2021/07/05 09:37:11;;;;;;;7.47;6.88;;;24.90;99.90;;;;;;6338907;22;20138;-63
2021/07/05 09:39:37;;;;;;;6.70;6.13;;;24.80;99.90;;;;;;6339337;22;20145;-63
2021/07/05 09:42:09;;;;;;;7.03;6.38;;;24.70;99.90;;;;;;6338894;22;20210;-63
2021/07/05 09:44:44;;;;;;;6.72;6.13;;;24.70;99.90;;;;;;6338917;22;20535;-64
2021/07/05 09:47:17;;;;;;;6.55;5.93;;;24.80;99.90;;;;;;6339292;22;20130;-63
2021/07/05 09:49:43;;;;;;;6.75;6.07;;;24.80;99.90;;;;;;6339063;22;20176;-63
2021/07/05 09:52:38;;;;;;;6.60;6.00;;;24.80;99.90;;;;;;6338737;22;20498;-64
2021/07/05 09:55:10;;;;;;;6.82;6.22;;;24.80;99.90;;;;;;6312395;22;20187;-64
2021/07/05 09:57:56;;;;;;;6.35;5.75;;;24.80;99.90;;;;;;6339024;22;20212;-64
2021/07/05 10:00:24;;;;;;;6.38;5.80;;;24.90;99.90;;;;;;6339220;22;20121;-63
2021/07/05 10:03:04;;;;;;;6.00;5.50;;;25.10;99.90;;;;;;6339012;22;20175;-64
2021/07/05 10:05:35;;;;;;;6.80;6.13;;;25.20;99.90;;;;;;6338703;22;20625;-65
2021/07/05 10:08:02;;;;;;;6.40;5.90;;;25.30;99.90;;;;;;6339020;22;20137;-65
2021/07/05 10:10:27;;;;;;;6.15;5.65;;;25.40;99.90;;;;;;6339117;22;20145;-65
2021/07/05 10:13:01;;;;;;;5.85;5.35;;;25.50;99.90;;;;;;6338617;22;20179;-65
2021/07/05 10:15:28;;;;;;;6.30;5.45;;;25.70;99.90;;;;;;6339202;22;20204;-64
2021/07/05 10:17:54;;;;;;;5.13;4.72;;;25.90;99.90;;;;;;6338656;22;20145;-65
2021/07/05 10:20:25;;;;;;;5.63;5.13;;;26.00;99.90;;;;;;6338950;22;20214;-65
2021/07/05 10:22:53;;;;;;;4.90;4.50;;;26.20;99.90;;;;;;6338572;22;20262;-65
2021/07/05 10:25:20;;;;;;;5.22;4.78;;;26.30;99.90;;;;;;6338491;22;20149;-65
2021/07/05 10:27:46;;;;;;;4.65;4.35;;;26.40;99.90;;;;;;6338213;22;20185;-64
2021/07/05 10:30:13;;;;;;;5.15;4.72;;;26.40;99.90;;;;;;6338591;22;20417;-64
2021/07/05 10:32:40;;;;;;;7.75;4.35;;;26.30;99.90;;;;;;6338712;22;20145;-64
2021/07/05 10:35:08;;;;;;;5.18;4.78;;;26.20;99.90;;;;;;6338673;22;20214;-64
2021/07/05 10:37:50;;;;;;;5.50;5.00;;;26.10;99.90;;;;;;6338395;22;20141;-64
2021/07/05 10:40:16;;;;;;;5.30;4.90;;;26.20;99.90;;;;;;6338797;22;20153;-63
2021/07/05 10:42:54;;;;;;;5.60;5.20;;;26.40;99.90;;;;;;6311669;22;20142;-63
2021/07/05 10:45:20;;;;;;;5.53;5.13;;;26.60;99.90;;;;;;6338700;22;20518;-64
2021/07/05 10:47:47;;;;;;;5.20;4.80;;;26.80;99.50;;;;;;6311342;22;20145;-63
2021/07/05 10:50:36;;;;;;;5.32;4.93;;;26.90;99.30;;;;;;6339319;22;20195;-63
2021/07/05 10:53:02;;;;;;;4.50;4.10;;;27.00;99.00;;;;;;6339229;22;20177;-63
2021/07/05 10:55:49;;;;;;;4.80;4.40;;;27.10;98.70;;;;;;6339376;22;20145;-63
2021/07/05 10:58:25;;;;;;;4.45;4.05;;;27.10;97.90;;;;;;6338878;22;20416;-63
2021/07/05 11:00:55;;;;;;;4.28;3.95;;;26.90;97.60;;;;;;6339240;22;20444;-63
2021/07/05 11:03:36;;;;;;;4.40;3.88;;;26.80;98.00;;;;;;6338703;22;20142;-63
2021/07/05 11:06:28;;;;;;;4.38;4.07;;;26.70;98.10;;;;;;6338929;22;20210;-63
2021/07/05 11:08:54;;;;;;;4.40;4.07;;;26.70;98.00;;;;;;6316889;22;20487;-63
2021/07/05 11:11:25;;;;;;;4.32;4.03;;;26.70;98.10;;;;;;6339014;22;20146;-63
2021/07/05 11:14:15;;;;;;;4.13;3.83;;;26.70;98.20;;;;;;6338543;22;20153;-62
2021/07/05 11:17:02;;;;;;;4.10;3.80;;;26.70;98.40;;;;;;6339055;22;20156;-63
2021/07/05 11:19:40;;;;;;;5.05;4.60;;;26.80;98.30;;;;;;6338955;22;20130;-63
2021/07/05 11:22:09;;;;;;;4.20;3.80;;;26.70;98.10;;;;;;6338302;22;20176;-63
2021/07/05 11:24:41;;;;;;;4.25;3.88;;;26.60;98.20;;;;;;6338463;22;20623;-63
2021/07/05 11:27:24;;;;;;;4.43;4.03;;;26.60;98.20;;;;;;6338733;22;20203;-63
2021/07/05 11:29:49;;;;;;;4.90;4.50;;;26.70;98.20;;;;;;6338456;22;20126;-63
2021/07/05 11:32:36;;;;;;;4.22;3.83;;;26.80;98.10;;;;;;6311300;22;20172;-63
2021/07/05 11:35:04;;;;;;;4.38;3.97;;;26.60;98.50;;;;;;6338194;22;20130;-63
2021/07/05 11:37:31;;;;;;;5.30;4.35;;;26.60;98.60;;;;;;6338522;22;20203;-64
2021/07/05 11:39:56;;;;;;;4.47;3.80;;;26.60;98.50;;;;;;6339186;22;20161;-63
2021/07/05 11:42:42;;;;;;;4.57;4.00;;;26.50;98.50;;;;;;6340114;22;20164;-64
2021/07/05 11:45:08;;;;;;;4.50;4.10;;;26.50;98.70;;;;;;6339976;22;20152;-65
2021/07/05 11:47:37;;;;;;;4.20;3.90;;;26.40;98.80;;;;;;6339891;22;20202;-65
2021/07/05 11:50:17;;;;;;;4.28;3.95;;;26.40;98.90;;;;;;6339865;22;20153;-64
2021/07/05 11:52:48;;;;;;;4.35;3.70;;;26.40;98.70;;;;;;6339510;22;20517;-64
2021/07/05 11:55:14;;;;;;;4.88;4.40;;;26.40;98.60;;;;;;6339896;22;20482;-64
2021/07/05 11:57:45;;;;;;;4.53;4.13;;;26.40;98.70;;;;;;6339739;22;20145;-65
2021/07/05 12:00:11;;;;;;;4.88;3.92;;;26.50;99.00;;;;;;6339960;22;20138;-65
2021/07/05 12:02:38;;;;;;;4.85;4.07;;;26.60;99.00;;;;;;6340092;22;20142;-65
2021/07/05 12:05:08;;;;;;;4.65;4.25;;;26.70;98.80;;;;;;6340141;22;20152;-65
2021/07/05 12:07:33;;;;;;;4.40;4.00;;;26.70;98.90;;;;;;6339997;22;20210;-65
2021/07/05 12:09:59;;;;;;;4.10;3.80;;;26.70;98.70;;;;;;6340055;22;20133;-65
2021/07/05 12:12:26;;;;;;;4.18;3.85;;;26.60;98.60;;;;;;6339708;22;20487;-65
2021/07/05 12:14:52;;;;;;;3.92;3.63;;;26.50;98.70;;;;;;6340004;22;20133;-65
2021/07/05 12:17:19;;;;;;;3.58;3.33;;;26.50;98.80;;;;;;6339463;22;20137;-65
2021/07/05 12:19:47;;;;;;;5.10;3.58;;;26.50;98.90;;;;;;6339599;22;20141;-65
2021/07/05 12:22:14;;;;;;;3.33;2.95;;;26.50;98.70;;;;;;6339467;22;20244;-66
2021/07/05 12:24:45;;;;;;;3.42;3.22;;;26.50;98.60;;;;;;6339379;22;20152;-65
2021/07/05 12:27:15;;;;;;;3.63;3.33;;;26.50;98.30;;;;;;6339865;22;20141;-65
2021/07/05 12:29:52;;;;;;;3.45;3.20;;;26.40;98.40;;;;;;6339365;22;20130;-66
2021/07/05 12:32:19;;;;;;;3.20;2.90;;;26.40;98.40;;;;;;6339875;22;20224;-65
2021/07/05 12:34:47;;;;;;;4.00;3.20;;;26.40;98.60;;;;;;6339600;22;20201;-65
2021/07/05 12:37:14;;;;;;;3.50;3.22;;;26.50;98.70;;;;;;6339480;22;20621;-66
2021/07/05 12:39:45;;;;;;;3.58;3.28;;;26.70;98.50;;;;;;6339453;22;20165;-66
2021/07/05 12:42:30;;;;;;;3.35;3.05;;;27.00;98.30;;;;;;6339465;22;20164;-66
2021/07/05 12:44:56;;;;;;;2.92;2.72;;;27.20;97.90;;;;;;6339392;22;20152;-65
2021/07/05 12:47:22;;;;;;;3.65;3.35;;;27.30;97.40;;;;;;6339440;22;20228;-65
2021/07/05 12:49:49;;;;;;;3.70;3.40;;;27.20;97.10;;;;;;6339629;22;20145;-65
2021/07/05 12:52:15;;;;;;;3.30;3.08;;;27.10;96.80;;;;;;6339267;22;20149;-65
2021/07/05 12:54:41;;;;;;;3.67;3.38;;;26.90;97.00;;;;;;6339170;22;20468;-65
2021/07/05 12:57:15;;;;;;;3.40;3.20;;;26.80;97.50;;;;;;6286424;22;20175;-65
2021/07/05 12:59:43;;;;;;;3.45;3.25;;;26.90;97.80;;;;;;6339620;22;20191;-65
2021/07/05 13:02:26;;;;;;;3.40;3.10;;;27.10;97.80;;;;;;6339163;22;20542;-65
2021/07/05 13:05:12;;;;;;;3.65;3.35;;;27.30;97.70;;;;;;6339100;22;20550;-65
2021/07/05 13:07:38;;;;;;;4.55;4.03;;;27.70;97.40;;;;;;6339273;22;20148;-66
2021/07/05 13:10:06;;;;;;;3.78;3.47;;;27.90;96.90;;;;;;6339430;22;20146;-65
2021/07/05 13:12:33;;;;;;;4.07;3.30;;;27.80;96.80;;;;;;6339093;22;20592;-66
2021/07/05 13:15:15;;;;;;;3.88;3.58;;;27.70;96.90;;;;;;6339370;22;20169;-66
2021/07/05 13:17:41;;;;;;;4.10;3.75;;;27.60;97.00;;;;;;6339502;22;20177;-65
2021/07/05 13:20:15;;;;;;;4.15;3.85;;;27.60;97.20;;;;;;6338804;22;20554;-66
2021/07/05 13:22:53;;;;;;;5.65;3.80;;;27.60;97.20;;;;;;6338907;22;20250;-66
2021/07/05 13:25:19;;;;;;;3.92;3.53;;;27.40;97.40;;;;;;6339532;22;20141;-66
2021/07/05 13:27:44;;;;;;;4.10;3.80;;;27.30;97.60;;;;;;6339638;22;20146;-66
2021/07/05 13:30:16;;;;;;;4.18;3.78;;;27.10;97.70;;;;;;6339133;22;20655;-66
2021/07/05 13:32:57;;;;;;;3.88;3.58;;;27.10;97.70;;;;;;6339473;22;20130;-66
2021/07/05 13:35:29;;;;;;;4.88;4.20;;;27.10;97.80;;;;;;6338929;22;20138;-63
2021/07/05 13:37:58;;;;;;;3.90;3.60;;;27.10;97.70;;;;;;6339091;22;20147;-65
2021/07/05 13:40:24;;;;;;;4.10;3.80;;;27.10;97.60;;;;;;6339239;22;20145;-64
2021/07/05 13:42:52;;;;;;;3.97;3.58;;;27.00;97.60;;;;;;6339539;22;20157;-64
2021/07/05 13:45:25;;;;;;;4.72;4.22;;;27.00;97.60;;;;;;6338973;22;20728;-65
2021/07/05 13:47:53;;;;;;;4.82;4.32;;;26.90;97.70;;;;;;6312565;22;20421;-65
2021/07/05 13:50:23;;;;;;;6.18;4.30;;;26.90;97.80;;;;;;6339119;22;20138;-65
2021/07/05 13:52:54;;;;;;;4.35;3.95;;;26.90;97.80;;;;;;6339441;22;20460;-65
2021/07/05 13:55:40;;;;;;;5.00;4.60;;;27.00;97.80;;;;;;6339458;22;20690;-64
2021/07/05 13:58:11;;;;;;;4.45;4.15;;;27.00;97.60;;;;;;6339849;22;20422;-64
2021/07/05 14:00:39;;;;;;;10.05;4.55;;;27.00;97.80;;;;;;6312228;22;20185;-65
2021/07/05 14:03:06;;;;;;;4.53;4.13;;;27.10;97.80;;;;;;6339244;22;20558;-65
2021/07/05 14:05:32;;;;;;;4.70;4.35;;;27.20;97.60;;;;;;6339609;22;20146;-64
2021/07/05 14:07:59;;;;;;;4.82;4.43;;;27.30;97.50;;;;;;6339338;22;20145;-64
2021/07/05 14:10:25;;;;;;;4.70;4.30;;;27.30;97.40;;;;;;6339236;22;20328;-66
2021/07/05 14:12:54;;;;;;;4.57;4.28;;;27.50;97.40;;;;;;6339256;22;20180;-64
2021/07/05 14:48:35;;;;;;;4.25;3.58;;;27.00;92.00;;;;;;6230022;22;20514;31
2021/07/05 14:57:34;;;;;;;3.63;3.25;;;25.90;93.40;;;;;;6265931;22;20200;31
2021/07/05 15:02:15;;;;;;;3.70;3.40;;;25.70;93.60;;;;;;6293614;22;20543;31
2021/07/05 15:11:39;;;;;;;4.10;3.80;;;25.30;95.30;;;;;;6322204;22;21659;31
2021/07/05 15:39:08;;;;;;;4.88;3.72;;;26.00;95.30;;;;;;6259387;22;20209;31
2021/07/05 15:49:53;;;;;;;5.60;5.10;;;26.50;93.90;;;;;;6170081;22;20542;31
2021/07/05 15:52:18;;;;;;;6.03;5.43;;;26.10;95.70;;;;;;6138083;23;20227;31
2021/07/05 16:40:00;;;;;;;6.07;5.53;;;20.60;99.90;;;;;;6228846;22;20205;31
2021/07/05 16:44:16;;;;;;;5.88;5.20;;;20.40;99.90;;;;;;6177840;22;20634;31
2021/07/05 16:54:03;;;;;;;6.68;6.03;;;20.00;99.90;;;;;;6290314;22;20203;31
2021/07/05 17:08:07;;;;;;;4.50;4.20;;;20.00;99.90;;;;;;6320723;22;22936;31
2021/07/05 17:19:18;;;;;;;3.15;2.92;;;20.20;99.90;;;;;;6206824;22;21849;31
2021/07/05 17:28:17;;;;;;;4.50;3.60;;;20.30;99.90;;;;;;6258492;22;20198;31
2021/07/05 17:54:30;;;;;;;3.88;3.47;;;20.10;99.90;;;;;;6236840;22;20526;31
2021/07/05 18:01:24;;;;;;;4.10;3.70;;;20.00;99.90;;;;;;6168246;22;20517;31
2021/07/05 18:17:54;;;;;;;4.05;3.28;;;19.80;99.90;;;;;;6203271;22;20206;31
2021/07/05 18:22:09;;;;;;;4.30;3.58;;;19.80;99.90;;;;;;6260530;22;20564;31
2021/07/05 18:28:47;;;;;;;4.95;4.55;;;19.90;99.90;;;;;;6176117;22;20545;-64
2021/07/05 18:31:12;;;;;;;5.28;4.78;;;19.90;99.90;;;;;;6152044;23;21479;31
2021/07/05 18:45:08;;;;;;;4.75;4.35;;;20.00;99.90;;;;;;6288011;22;20204;31
2021/07/05 18:56:38;;;;;;;5.60;5.10;;;20.80;99.90;;;;;;6291853;22;20532;31
2021/07/05 19:27:28;;;;;;;5.85;5.25;;;19.30;99.90;;;;;;6295888;22;20192;-63
2021/07/05 19:34:23;;;;;;;6.85;5.50;;;18.80;99.90;;;;;;6194716;22;20201;31
2021/07/05 20:30:12;;;;;;;9.98;6.65;;;17.40;99.90;;;;;;6149265;22;20210;-64
2021/07/05 20:35:14;;;;;;;7.60;5.88;;;17.40;99.90;;;;;;6258241;22;22588;31
2021/07/05 20:44:50;;;;;;;6.22;4.72;;;17.30;99.90;;;;;;6172289;23;21334;31
2021/07/05 20:57:24;;;;;;;6.18;4.53;;;17.20;99.90;;;;;;6297449;22;20547;31
2021/07/05 21:14:47;;;;;;;6.63;5.03;;;16.80;99.90;;;;;;6237033;22;20196;31
2021/07/05 21:29:52;;;;;;;6.57;4.70;;;16.60;99.90;;;;;;5745686;22;20245;-64
2021/07/05 21:34:22;;;;;;;5.68;4.35;;;16.50;99.90;;;;;;6350030;22;20528;31
2021/07/05 21:42:22;;;;;;;7.28;5.20;;;16.30;99.90;;;;;;5946395;22;20603;31
2021/07/05 21:52:59;;;;;;;6.28;5.07;;;16.10;99.90;;;;;;6195967;22;20206;31
2021/07/05 22:00:11;;;;;;;6.25;5.03;;;16.00;99.90;;;;;;6196042;22;21041;31
2021/07/05 22:26:50;;;;;;;7.35;5.35;;;15.50;99.90;;;;;;6225173;22;20202;31
2021/07/05 22:34:02;;;;;;;7.32;5.70;;;15.30;99.90;;;;;;6341611;22;20196;31
2021/07/05 22:44:49;;;;;;;8.55;5.78;;;15.20;99.90;;;;;;6288248;22;20608;31
2021/07/05 22:52:05;;;;;;;11.55;7.75;;;15.10;99.90;;;;;;6345318;22;20505;-63
2021/07/05 22:58:53;;;;;;;11.50;7.53;;;15.10;99.90;;;;;;6173064;22;21421;31
2021/07/05 23:12:31;;;;;;;8.30;6.75;;;15.00;99.90;;;;;;6231411;22;20514;-65
2021/07/05 23:22:43;;;;;;;8.00;6.50;;;14.80;99.90;;;;;;6295975;22;20203;31
2021/07/05 23:27:09;;;;;;;10.23;6.63;;;14.70;99.90;;;;;;5881068;22;20566;31
2021/07/05 23:34:25;;;;;;;9.90;7.57;;;14.70;99.90;;;;;;6321496;22;20514;-64
2021/07/05 23:48:53;;;;;;;11.43;7.78;;;14.60;99.90;;;;;;5855239;22;21326;-64
